Time;durP1;ratioP1;P1;durP2;ratioP2;P2;SDS_P1;SDS_P2;PMS_P1;PMS_P2;Temp;Humidity;BMP_temperature;BMP_pressure;BME280_temperature;BME280_humidity;BME280_pressure;Samples;Min_cycle;Max_cycle;Signal;HPM_P1;HPM_P2
2022/06/27 00:01:12;;;;;;;0.30;0.30;;;18.30;99.90;;;;;;5075857;28;20186;-77
2022/06/27 00:03:38;;;;;;;0.30;0.30;;;18.40;99.90;;;;;;5057875;28;20040;-76
2022/06/27 00:06:04;;;;;;;0.30;0.30;;;18.40;99.90;;;;;;5075541;28;20045;-77
2022/06/27 00:08:29;;;;;;;0.30;0.30;;;18.30;99.90;;;;;;5076073;28;20040;-78
2022/06/27 00:10:55;;;;;;;0.40;0.40;;;18.30;99.90;;;;;;5075681;28;20076;-77
2022/06/27 00:13:21;;;;;;;0.20;0.20;;;18.30;99.90;;;;;;5075555;28;20066;-77
2022/06/27 00:15:46;;;;;;;0.40;0.40;;;18.30;99.90;;;;;;5075647;28;20040;-77
2022/06/27 00:18:12;;;;;;;0.20;0.20;;;18.30;99.90;;;;;;5075260;28;20366;-76
2022/06/27 00:20:38;;;;;;;0.30;0.30;;;18.30;99.90;;;;;;5075159;28;20076;-76
2022/06/27 00:23:03;;;;;;;0.30;0.30;;;18.30;99.90;;;;;;5075439;28;20041;-76
2022/06/27 00:25:29;;;;;;;0.30;0.30;;;18.30;99.90;;;;;;5075244;28;20044;-75
2022/06/27 00:27:54;;;;;;;0.40;0.40;;;18.30;99.90;;;;;;5075211;28;20053;-76
2022/06/27 00:30:20;;;;;;;0.30;0.30;;;18.30;99.90;;;;;;5075416;28;20045;-78
2022/06/27 00:32:48;;;;;;;0.20;0.20;;;18.30;99.90;;;;;;5075002;28;20105;-75
2022/06/27 00:35:13;;;;;;;0.30;0.30;;;18.30;99.90;;;;;;5074847;28;20508;-77
2022/06/27 00:37:39;;;;;;;0.30;0.30;;;18.30;99.90;;;;;;5075076;28;20048;-78
2022/06/27 00:40:06;;;;;;;0.20;0.20;;;18.40;99.90;;;;;;5074842;28;20044;-77
2022/06/27 00:42:32;;;;;;;0.30;0.30;;;18.40;99.90;;;;;;5040946;28;20469;-76
2022/06/27 00:44:58;;;;;;;0.30;0.30;;;18.40;99.90;;;;;;5074878;28;20044;-77
2022/06/27 00:47:24;;;;;;;0.20;0.20;;;18.30;99.90;;;;;;5073922;28;20051;-76
2022/06/27 00:49:49;;;;;;;0.30;0.30;;;18.30;99.90;;;;;;5075148;28;20044;-75
2022/06/27 00:52:15;;;;;;;0.30;0.30;;;18.30;99.90;;;;;;5074561;28;20044;-77
2022/06/27 00:54:45;;;;;;;0.25;0.25;;;18.20;99.90;;;;;;5074574;28;20084;-78
2022/06/27 00:57:12;;;;;;;0.30;0.30;;;18.30;99.90;;;;;;5074542;28;20373;-75
2022/06/27 00:59:38;;;;;;;0.30;0.30;;;18.30;99.90;;;;;;5074422;28;20040;-78
2022/06/27 01:02:04;;;;;;;0.30;0.30;;;18.30;99.90;;;;;;5074088;28;20070;-75
2022/06/27 01:04:30;;;;;;;0.40;0.40;;;18.20;99.90;;;;;;5074359;28;20047;-78
2022/06/27 01:06:57;;;;;;;0.30;0.30;;;18.20;99.90;;;;;;5074266;28;20079;-77
2022/06/27 01:09:23;;;;;;;0.30;0.30;;;18.10;99.90;;;;;;5074434;28;20380;-78
2022/06/27 01:11:49;;;;;;;0.30;0.30;;;18.10;99.90;;;;;;5074218;28;20127;-77
2022/06/27 01:14:15;;;;;;;0.40;0.40;;;18.10;99.90;;;;;;5074202;28;20149;-76
2022/06/27 01:16:41;;;;;;;0.30;0.30;;;18.10;99.90;;;;;;5074145;28;20048;-76
2022/06/27 01:19:17;;;;;;;0.20;0.20;;;18.10;99.90;;;;;;5074228;28;20062;-77
2022/06/27 01:21:46;;;;;;;0.20;0.20;;;18.10;99.90;;;;;;5074206;28;20060;-75
2022/06/27 01:24:12;;;;;;;0.30;0.30;;;18.10;99.90;;;;;;5074075;28;20044;-78
2022/06/27 01:26:38;;;;;;;0.30;0.30;;;18.10;99.90;;;;;;5074516;28;20044;-76
2022/06/27 01:29:04;;;;;;;0.30;0.30;;;18.00;99.90;;;;;;5074001;28;20055;-75
2022/06/27 01:31:30;;;;;;;0.30;0.30;;;18.00;99.90;;;;;;5074168;28;20047;-75
2022/06/27 01:33:57;;;;;;;0.28;0.28;;;18.00;99.90;;;;;;5073989;28;20045;-76
2022/06/27 01:39:07;;;;;;;0.20;0.20;;;18.00;99.90;;;;;;5074054;28;20041;-76
2022/06/27 01:41:32;;;;;;;0.60;0.40;;;18.00;99.90;;;;;;5073816;28;20044;-75
2022/06/27 01:43:59;;;;;;;0.30;0.30;;;18.10;99.90;;;;;;5074126;28;20067;-77
2022/06/27 01:46:24;;;;;;;0.30;0.30;;;18.10;99.90;;;;;;5073815;28;20102;-77
2022/06/27 01:48:50;;;;;;;0.30;0.30;;;18.10;99.90;;;;;;5073893;28;20044;-77
2022/06/27 01:51:17;;;;;;;0.20;0.20;;;18.20;99.90;;;;;;5073939;28;20088;-76
2022/06/27 01:53:43;;;;;;;0.40;0.40;;;18.10;99.90;;;;;;5056296;28;20470;-74
2022/06/27 01:56:08;;;;;;;0.20;0.20;;;18.00;99.90;;;;;;5073783;28;20080;-77
2022/06/27 01:58:34;;;;;;;0.30;0.30;;;18.10;99.90;;;;;;5074260;28;20044;-77
2022/06/27 02:01:00;;;;;;;0.30;0.30;;;18.00;99.90;;;;;;5074390;28;20106;-76
2022/06/27 02:03:25;;;;;;;2.43;0.83;;;18.00;99.90;;;;;;5073831;28;20036;-78
2022/06/27 02:05:52;;;;;;;0.30;0.30;;;18.00;99.90;;;;;;5073537;28;20052;-75
2022/06/27 02:08:20;;;;;;;0.20;0.20;;;18.00;99.90;;;;;;5073761;28;20051;-77
2022/06/27 02:10:46;;;;;;;0.20;0.20;;;17.90;99.90;;;;;;5073675;28;20037;-77
2022/06/27 02:13:13;;;;;;;0.30;0.30;;;17.90;99.90;;;;;;5073426;28;20480;-78
2022/06/27 02:15:57;;;;;;;;;;;17.90;99.90;;;;;;5074454;28;20048;-76
2022/06/27 02:18:23;;;;;;;0.30;0.30;;;17.90;99.90;;;;;;5073486;28;19949;-75
2022/06/27 02:20:49;;;;;;;0.30;0.30;;;17.90;99.90;;;;;;5073695;28;20044;-76
2022/06/27 02:23:14;;;;;;;0.30;0.30;;;17.90;99.90;;;;;;5073474;28;20370;-77
2022/06/27 02:25:40;;;;;;;0.30;0.30;;;17.90;99.90;;;;;;5073561;28;20123;-78
2022/06/27 02:28:06;;;;;;;0.30;0.30;;;17.90;99.90;;;;;;5073514;28;20045;-75
2022/06/27 02:30:31;;;;;;;0.27;0.27;;;17.90;99.90;;;;;;5073538;28;20462;-77
2022/06/27 02:32:57;;;;;;;0.30;0.30;;;17.80;99.90;;;;;;5073589;28;20052;-76
2022/06/27 02:35:23;;;;;;;0.30;0.30;;;17.80;99.90;;;;;;5073525;28;20440;-77
2022/06/27 02:37:49;;;;;;;0.20;0.20;;;17.80;99.90;;;;;;5073441;28;20392;-77
2022/06/27 02:40:18;;;;;;;0.30;0.30;;;17.70;99.90;;;;;;5073405;28;20782;-77
2022/06/27 02:42:43;;;;;;;0.30;0.30;;;17.80;99.90;;;;;;5073827;28;20052;-76
2022/06/27 02:45:10;;;;;;;0.30;0.30;;;17.90;99.90;;;;;;5075144;28;20044;-75
2022/06/27 02:47:38;;;;;;;0.30;0.30;;;17.70;99.90;;;;;;5075644;28;20051;-77
2022/06/27 02:50:04;;;;;;;0.32;0.32;;;17.70;99.90;;;;;;5075100;28;20044;-76
2022/06/27 02:52:32;;;;;;;0.30;0.30;;;17.70;99.90;;;;;;5073237;28;20044;-77
2022/06/27 02:55:04;;;;;;;0.30;0.30;;;17.60;99.90;;;;;;5073728;28;20091;-76
2022/06/27 02:57:59;;;;;;;0.30;0.30;;;17.60;99.90;;;;;;5073379;28;20098;-76
2022/06/27 03:00:27;;;;;;;0.30;0.30;;;17.60;99.90;;;;;;5073481;28;20080;-77
2022/06/27 03:02:54;;;;;;;0.30;0.30;;;17.70;99.90;;;;;;5073117;28;20044;-76
2022/06/27 03:05:19;;;;;;;0.30;0.30;;;17.60;99.90;;;;;;5073123;28;20484;-77
2022/06/27 03:07:45;;;;;;;0.20;0.20;;;17.60;99.90;;;;;;5073499;28;20053;-76
2022/06/27 03:10:12;;;;;;;0.30;0.30;;;17.60;99.90;;;;;;5074874;28;20123;-76
2022/06/27 03:12:38;;;;;;;;;;;17.60;99.90;;;;;;5077449;28;20059;-77
2022/06/27 03:15:04;;;;;;;0.45;0.45;;;17.50;99.90;;;;;;5076887;28;20352;-75
2022/06/27 03:17:30;;;;;;;0.30;0.30;;;17.50;99.90;;;;;;5076778;28;20052;-77
2022/06/27 03:19:56;;;;;;;0.40;0.40;;;17.40;99.90;;;;;;5077067;28;20040;-76
2022/06/27 03:22:22;;;;;;;0.50;0.50;;;17.30;99.90;;;;;;5077324;28;20086;-75
2022/06/27 03:24:47;;;;;;;0.30;0.30;;;17.30;99.90;;;;;;5077216;28;20131;-74
2022/06/27 03:27:13;;;;;;;0.20;0.20;;;17.20;99.90;;;;;;5079391;28;20362;-72
2022/06/27 03:29:39;;;;;;;0.30;0.30;;;17.30;99.90;;;;;;5081427;28;20045;-73
2022/06/27 03:32:05;;;;;;;0.20;0.20;;;17.30;99.90;;;;;;5081972;28;20048;-73
2022/06/27 03:34:31;;;;;;;0.38;0.38;;;17.10;99.90;;;;;;5081367;28;20444;-75
2022/06/27 03:36:57;;;;;;;2.13;0.77;;;17.10;99.90;;;;;;5079219;28;20045;-75
2022/06/27 03:39:23;;;;;;;0.20;0.20;;;17.10;99.90;;;;;;5077809;28;20476;-78
2022/06/27 03:41:49;;;;;;;0.30;0.30;;;17.00;99.90;;;;;;5076352;28;20055;-77
2022/06/27 03:44:15;;;;;;;0.20;0.20;;;17.10;99.90;;;;;;5076138;28;20086;-78
2022/06/27 03:46:41;;;;;;;0.30;0.30;;;17.00;99.90;;;;;;5058256;28;20088;-76
2022/06/27 03:51:52;;;;;;;0.30;0.30;;;17.10;99.90;;;;;;5076051;28;20048;-75
2022/06/27 03:54:18;;;;;;;0.57;0.57;;;17.00;99.90;;;;;;5076225;28;20071;-76
2022/06/27 03:56:43;;;;;;;0.30;0.30;;;17.00;99.90;;;;;;5075870;28;20515;-74
2022/06/27 03:59:10;;;;;;;0.30;0.30;;;17.10;99.90;;;;;;5075762;28;20040;-79
2022/06/27 04:01:35;;;;;;;0.30;0.30;;;17.10;99.90;;;;;;5075604;28;20076;-77
2022/06/27 04:04:01;;;;;;;0.30;0.30;;;17.00;99.90;;;;;;5075629;28;20087;-77
2022/06/27 04:06:27;;;;;;;0.30;0.30;;;17.00;99.90;;;;;;5075765;28;20535;-75
2022/06/27 04:08:53;;;;;;;0.30;0.30;;;17.00;99.90;;;;;;5075545;28;20097;-78
2022/06/27 04:11:18;;;;;;;0.30;0.30;;;17.10;99.90;;;;;;5075524;28;20202;-78
2022/06/27 04:13:44;;;;;;;0.30;0.30;;;17.00;99.90;;;;;;5075533;28;20052;-78
2022/06/27 04:16:10;;;;;;;0.30;0.30;;;16.90;99.90;;;;;;5075580;28;20055;-76
2022/06/27 04:18:35;;;;;;;0.20;0.20;;;17.00;99.90;;;;;;5075300;28;20041;-78
2022/06/27 04:21:01;;;;;;;0.20;0.20;;;16.90;99.90;;;;;;5074606;28;20149;-76
2022/06/27 04:23:26;;;;;;;0.30;0.30;;;16.90;99.90;;;;;;5075650;28;20036;-75
2022/06/27 04:25:53;;;;;;;0.30;0.30;;;16.80;99.90;;;;;;5075206;28;20045;-76
2022/06/27 04:28:18;;;;;;;0.30;0.30;;;16.80;99.90;;;;;;5075203;28;20049;-75
2022/06/27 04:30:44;;;;;;;0.30;0.30;;;16.80;99.90;;;;;;5074894;28;20132;-76
2022/06/27 04:33:11;;;;;;;0.60;0.60;;;16.80;99.90;;;;;;5074993;28;20098;-77
2022/06/27 04:35:36;;;;;;;0.30;0.30;;;16.80;99.90;;;;;;5075050;28;20131;-74
2022/06/27 04:38:03;;;;;;;0.20;0.20;;;16.80;99.90;;;;;;5074951;28;20136;-74
2022/06/27 04:40:29;;;;;;;0.28;0.28;;;16.80;99.90;;;;;;5074873;28;20473;-75
2022/06/27 04:42:56;;;;;;;0.30;0.30;;;16.80;99.90;;;;;;5074997;28;20040;-78
2022/06/27 04:45:22;;;;;;;0.30;0.30;;;16.80;99.90;;;;;;5074810;28;20057;-73
2022/06/27 04:47:48;;;;;;;0.82;0.82;;;16.70;99.90;;;;;;5074699;28;20563;-75
2022/06/27 04:50:18;;;;;;;0.20;0.20;;;16.80;99.90;;;;;;5074840;28;20151;-73
2022/06/27 04:52:45;;;;;;;0.40;0.40;;;16.80;99.90;;;;;;5074647;28;20484;-75
2022/06/27 04:55:12;;;;;;;0.30;0.30;;;16.70;99.90;;;;;;5074983;28;20080;-76
2022/06/27 04:57:39;;;;;;;0.30;0.30;;;16.70;99.90;;;;;;5074587;28;20052;-73
2022/06/27 05:00:08;;;;;;;0.30;0.30;;;16.70;99.90;;;;;;5074366;28;20053;-73
2022/06/27 05:02:33;;;;;;;0.30;0.30;;;16.70;99.90;;;;;;5074603;28;20127;-76
2022/06/27 05:04:59;;;;;;;0.30;0.30;;;16.70;99.90;;;;;;5074415;28;20123;-75
2022/06/27 05:07:25;;;;;;;0.30;0.30;;;16.70;99.90;;;;;;5074338;28;20053;-73
2022/06/27 05:09:52;;;;;;;0.30;0.30;;;16.70;99.90;;;;;;5074315;28;20207;-74
2022/06/27 05:12:19;;;;;;;;;;;16.70;99.90;;;;;;5074710;28;20060;-78
2022/06/27 05:14:44;;;;;;;0.30;0.30;;;16.70;99.90;;;;;;5074188;28;19920;-74
2022/06/27 05:17:10;;;;;;;0.30;0.30;;;16.60;99.90;;;;;;5074143;28;20044;-76
2022/06/27 05:19:36;;;;;;;0.20;0.20;;;16.60;99.90;;;;;;5074194;28;20480;-76
2022/06/27 05:22:02;;;;;;;0.30;0.30;;;16.60;99.90;;;;;;5074136;28;20072;-75
2022/06/27 05:24:27;;;;;;;0.20;0.20;;;16.60;99.90;;;;;;5074195;28;20484;-78
2022/06/27 05:26:54;;;;;;;0.30;0.30;;;16.50;99.90;;;;;;5074223;28;20045;-77
2022/06/27 05:29:20;;;;;;;0.30;0.30;;;16.50;99.90;;;;;;5074133;28;20084;-77
2022/06/27 05:31:46;;;;;;;0.30;0.30;;;16.50;99.90;;;;;;5073864;28;20044;-75
2022/06/27 05:34:12;;;;;;;0.50;0.50;;;16.50;99.90;;;;;;5074171;28;20475;-73
2022/06/27 05:36:38;;;;;;;0.30;0.30;;;16.50;99.90;;;;;;5073940;28;20076;-76
2022/06/27 05:39:05;;;;;;;0.30;0.30;;;16.50;99.90;;;;;;5073917;28;20480;-78
2022/06/27 05:41:31;;;;;;;0.30;0.30;;;16.50;99.90;;;;;;5073909;28;20287;-77
2022/06/27 05:43:57;;;;;;;0.30;0.30;;;16.60;99.90;;;;;;5073817;28;20036;-79
2022/06/27 05:46:23;;;;;;;0.20;0.20;;;16.60;99.90;;;;;;5073657;28;20095;-80
2022/06/27 05:48:50;;;;;;;1.23;0.95;;;16.60;99.90;;;;;;5074186;28;20048;-77
2022/06/27 05:51:16;;;;;;;0.30;0.30;;;16.70;99.90;;;;;;5056025;28;20135;-76
2022/06/27 05:53:43;;;;;;;0.30;0.30;;;16.70;99.90;;;;;;5073447;28;20119;-80
2022/06/27 05:56:09;;;;;;;0.20;0.20;;;16.80;99.90;;;;;;5073769;28;20087;-77
2022/06/27 05:58:35;;;;;;;0.20;0.20;;;16.90;99.90;;;;;;5073557;28;20131;-77
2022/06/27 06:01:01;;;;;;;0.77;0.50;;;16.90;99.90;;;;;;5073694;28;20198;-78
2022/06/27 06:03:27;;;;;;;0.30;0.30;;;16.90;99.90;;;;;;5073601;28;20055;-77
2022/06/27 06:05:54;;;;;;;0.20;0.20;;;16.90;99.90;;;;;;5073536;28;20040;-76
2022/06/27 06:08:21;;;;;;;0.30;0.30;;;17.00;99.90;;;;;;5055840;28;20539;-76
2022/06/27 06:10:47;;;;;;;0.40;0.40;;;17.00;99.90;;;;;;5073591;28;20123;-76
2022/06/27 06:13:14;;;;;;;0.30;0.30;;;17.00;99.90;;;;;;5073583;28;20132;-79
2022/06/27 06:15:40;;;;;;;0.30;0.30;;;17.00;99.90;;;;;;5073368;28;20080;-77
2022/06/27 06:18:07;;;;;;;0.40;0.40;;;17.10;99.90;;;;;;5073511;28;20048;-76
2022/06/27 06:20:33;;;;;;;0.30;0.30;;;17.00;99.90;;;;;;5073335;28;20041;-77
2022/06/27 06:23:01;;;;;;;0.30;0.30;;;17.00;99.90;;;;;;5073497;28;20047;-79
2022/06/27 06:25:28;;;;;;;0.30;0.30;;;17.00;99.90;;;;;;5073337;28;20056;-76
2022/06/27 06:27:57;;;;;;;0.30;0.30;;;17.00;99.90;;;;;;5073378;28;20087;-81
2022/06/27 06:30:24;;;;;;;0.57;0.50;;;17.00;99.90;;;;;;5073313;28;20080;-81
2022/06/27 06:32:50;;;;;;;0.30;0.30;;;17.00;99.90;;;;;;5073756;28;20123;-80
2022/06/27 06:35:16;;;;;;;0.30;0.30;;;17.10;99.90;;;;;;5055836;28;20396;-81
2022/06/27 06:37:43;;;;;;;0.30;0.30;;;16.90;99.90;;;;;;5073566;28;20086;-84
2022/06/27 06:40:10;;;;;;;0.30;0.30;;;16.90;99.90;;;;;;5071727;28;20044;-86
2022/06/27 06:42:35;;;;;;;0.40;0.40;;;17.00;99.90;;;;;;5038342;28;20083;-84
2022/06/27 06:45:03;;;;;;;0.20;0.20;;;17.10;99.90;;;;;;5057149;28;20084;-85
2022/06/27 06:47:30;;;;;;;0.30;0.30;;;17.10;99.90;;;;;;5059666;28;20044;-85
2022/06/27 06:49:55;;;;;;;0.30;0.30;;;17.10;99.90;;;;;;5058331;28;20193;-83
2022/06/27 06:52:21;;;;;;;0.20;0.20;;;17.30;99.90;;;;;;5059189;28;20508;-87
2022/06/27 06:54:48;;;;;;;0.30;0.30;;;17.30;99.90;;;;;;5045389;28;20400;-88
2022/06/27 06:57:16;;;;;;;0.30;0.30;;;17.30;99.90;;;;;;5045647;28;20041;-89
2022/06/27 06:59:41;;;;;;;0.30;0.30;;;17.40;99.90;;;;;;5047713;28;20048;-88
2022/06/27 07:02:08;;;;;;;0.30;0.30;;;17.40;99.90;;;;;;5045283;28;20049;-87
2022/06/27 07:04:34;;;;;;;;;;;17.40;99.90;;;;;;5044268;28;20051;-89
2022/06/27 07:07:00;;;;;;;0.28;0.28;;;17.40;99.90;;;;;;5043284;28;19921;-87
2022/06/27 07:09:26;;;;;;;0.30;0.30;;;17.30;99.90;;;;;;5059271;28;20052;-89
2022/06/27 07:11:53;;;;;;;0.30;0.30;;;17.40;99.90;;;;;;5041993;28;20044;-87
2022/06/27 07:14:19;;;;;;;0.30;0.30;;;17.30;99.90;;;;;;5042683;28;20448;-85
2022/06/27 07:16:46;;;;;;;0.20;0.20;;;17.30;99.90;;;;;;5059117;28;20101;-85
2022/06/27 07:19:13;;;;;;;0.20;0.20;;;17.30;99.90;;;;;;5042738;28;20149;-86
2022/06/27 07:21:39;;;;;;;0.30;0.30;;;17.30;99.90;;;;;;5059095;28;20488;-85
2022/06/27 07:24:08;;;;;;;0.30;0.30;;;17.20;99.90;;;;;;5042137;28;20048;-87
2022/06/27 07:26:35;;;;;;;0.30;0.30;;;17.20;99.90;;;;;;5058324;28;20044;-82
2022/06/27 07:29:04;;;;;;;0.30;0.30;;;17.30;99.90;;;;;;5058402;28;20558;-84
2022/06/27 07:31:31;;;;;;;0.30;0.30;;;17.40;99.90;;;;;;5058659;28;20055;-83
2022/06/27 07:33:56;;;;;;;0.22;0.22;;;17.30;99.90;;;;;;5058687;28;20055;-84
2022/06/27 07:36:25;;;;;;;0.23;0.23;;;17.30;99.90;;;;;;5058460;28;20049;-85
2022/06/27 07:38:52;;;;;;;0.20;0.20;;;17.30;99.90;;;;;;5040637;28;20044;-85
2022/06/27 07:41:22;;;;;;;0.20;0.20;;;17.40;99.90;;;;;;5058535;28;20049;-87
2022/06/27 07:43:48;;;;;;;0.28;0.28;;;17.70;99.90;;;;;;5058446;28;20051;-83
2022/06/27 07:46:17;;;;;;;0.30;0.30;;;17.50;99.90;;;;;;5041738;28;20455;-78
2022/06/27 07:48:44;;;;;;;0.20;0.20;;;17.50;99.90;;;;;;5076304;28;20036;-77
2022/06/27 07:51:10;;;;;;;;;;;17.70;99.90;;;;;;5076306;28;20049;-76
2022/06/27 07:53:37;;;;;;;0.30;0.30;;;17.90;99.90;;;;;;5075927;28;19920;-78
2022/06/27 07:56:06;;;;;;;0.30;0.30;;;18.00;99.90;;;;;;5075521;28;20127;-76
2022/06/27 07:58:33;;;;;;;0.30;0.30;;;18.10;99.90;;;;;;5076105;28;20583;-76
2022/06/27 08:01:02;;;;;;;0.30;0.30;;;18.10;99.90;;;;;;5075535;28;20044;-79
2022/06/27 08:03:39;;;;;;;1.77;0.82;;;18.20;99.90;;;;;;5075468;28;20041;-76
2022/06/27 08:06:15;;;;;;;0.20;0.20;;;18.10;99.90;;;;;;5075703;28;20488;-77
2022/06/27 08:08:43;;;;;;;0.30;0.30;;;18.30;99.90;;;;;;5075976;28;20048;-76
2022/06/27 08:11:11;;;;;;;0.40;0.40;;;18.30;99.90;;;;;;5075485;28;20056;-76
2022/06/27 08:13:38;;;;;;;0.20;0.20;;;18.40;99.90;;;;;;5075983;28;20051;-78
2022/06/27 08:16:05;;;;;;;0.30;0.30;;;18.40;99.90;;;;;;5075474;28;20041;-76
2022/06/27 08:18:32;;;;;;;0.30;0.30;;;18.40;99.90;;;;;;5075351;28;20048;-77
2022/06/27 08:20:59;;;;;;;0.20;0.20;;;18.40;99.90;;;;;;5075187;28;20388;-83
2022/06/27 08:23:25;;;;;;;0.20;0.20;;;18.40;99.90;;;;;;5039884;28;20446;-88
2022/06/27 08:25:51;;;;;;;0.30;0.30;;;18.50;99.90;;;;;;5054141;28;20496;-87
2022/06/27 08:28:19;;;;;;;0.30;0.30;;;18.80;99.90;;;;;;5037203;28;20079;-81
2022/06/27 08:30:45;;;;;;;0.22;0.22;;;18.60;99.90;;;;;;5055005;28;20103;-85
2022/06/27 08:33:14;;;;;;;0.30;0.30;;;18.60;99.90;;;;;;5021070;28;20053;-85
2022/06/27 08:35:47;;;;;;;0.30;0.30;;;18.80;99.90;;;;;;5036937;28;20413;-86
2022/06/27 08:38:15;;;;;;;0.20;0.20;;;18.80;99.90;;;;;;5037207;28;20067;-84
2022/06/27 08:40:41;;;;;;;0.30;0.30;;;18.80;99.90;;;;;;5037079;28;20092;-85
2022/06/27 08:43:10;;;;;;;0.30;0.30;;;18.80;99.90;;;;;;5036564;28;20408;-79
2022/06/27 08:45:36;;;;;;;0.20;0.20;;;18.90;99.90;;;;;;5054413;28;20483;-80
2022/06/27 08:48:07;;;;;;;0.30;0.30;;;18.90;99.90;;;;;;5054619;28;20084;-81
2022/06/27 08:50:35;;;;;;;0.20;0.20;;;18.90;99.90;;;;;;5054734;28;20045;-81
2022/06/27 08:53:02;;;;;;;0.20;0.20;;;18.90;99.90;;;;;;5054697;28;20048;-80
2022/06/27 08:55:30;;;;;;;0.20;0.20;;;18.80;99.90;;;;;;5054596;28;20139;-79
2022/06/27 08:58:03;;;;;;;0.30;0.30;;;18.70;99.90;;;;;;5054480;28;20045;-80
2022/06/27 09:00:30;;;;;;;0.20;0.20;;;18.60;99.90;;;;;;5036469;28;20131;-81
2022/06/27 09:02:56;;;;;;;0.20;0.20;;;18.60;99.90;;;;;;5054254;28;20098;-79
2022/06/27 09:05:26;;;;;;;0.30;0.30;;;18.50;99.90;;;;;;5054177;28;20045;-81
2022/06/27 09:08:01;;;;;;;0.30;0.30;;;18.60;99.90;;;;;;5053429;28;20057;-80
2022/06/27 09:10:46;;;;;;;0.20;0.20;;;18.60;99.90;;;;;;5054098;28;20071;-81
2022/06/27 09:13:17;;;;;;;0.30;0.30;;;18.60;99.90;;;;;;5053890;28;20106;-81
2022/06/27 09:15:50;;;;;;;0.20;0.20;;;18.60;99.90;;;;;;5054219;28;20443;-82
2022/06/27 09:18:22;;;;;;;0.20;0.20;;;18.50;99.90;;;;;;5020099;28;20080;-81
2022/06/27 09:21:09;;;;;;;0.30;0.30;;;18.50;99.90;;;;;;5045379;28;20055;-81
2022/06/27 09:23:37;;;;;;;0.30;0.30;;;18.50;99.90;;;;;;5054036;28;20106;-80
2022/06/27 09:26:06;;;;;;;0.20;0.20;;;18.40;99.90;;;;;;5035999;28;20107;-80
2022/06/27 09:29:06;;;;;;;0.20;0.20;;;18.40;99.90;;;;;;5053948;28;20041;-80
2022/06/27 09:31:42;;;;;;;0.20;0.20;;;18.30;99.90;;;;;;5054020;28;20045;-80
2022/06/27 09:34:08;;;;;;;0.30;0.30;;;18.30;99.90;;;;;;5053779;28;20049;-80
2022/06/27 09:36:37;;;;;;;0.20;0.20;;;18.20;99.90;;;;;;5036039;28;20139;-80
2022/06/27 09:39:04;;;;;;;0.30;0.30;;;18.10;99.90;;;;;;5053308;28;20485;-80
2022/06/27 09:41:30;;;;;;;0.30;0.30;;;18.10;99.90;;;;;;5053404;28;20500;-80
2022/06/27 09:44:10;;;;;;;0.28;0.28;;;18.10;99.90;;;;;;5036021;28;20049;-80
2022/06/27 09:46:42;;;;;;;0.22;0.22;;;18.30;99.90;;;;;;5053430;28;20053;-80
2022/06/27 09:49:12;;;;;;;0.30;0.30;;;18.00;99.90;;;;;;5053753;28;20041;-80
2022/06/27 09:51:39;;;;;;;0.30;0.30;;;18.30;99.90;;;;;;5053915;28;20079;-80
2022/06/27 09:54:11;;;;;;;0.30;0.30;;;18.20;99.90;;;;;;5053607;28;20052;-80
2022/06/27 09:56:39;;;;;;;0.30;0.30;;;18.30;99.90;;;;;;5053668;28;20037;-81
2022/06/27 09:59:07;;;;;;;0.30;0.30;;;18.30;99.90;;;;;;5053402;28;20124;-81
2022/06/27 10:01:34;;;;;;;0.30;0.30;;;18.30;99.90;;;;;;5053437;28;20042;-81
2022/06/27 10:04:02;;;;;;;0.30;0.30;;;18.40;99.90;;;;;;5053544;28;20494;-82
2022/06/27 10:06:32;;;;;;;0.20;0.20;;;18.40;99.90;;;;;;5053325;28;20080;-79
2022/06/27 10:09:00;;;;;;;0.20;0.20;;;18.40;99.90;;;;;;5053691;28;20056;-78
2022/06/27 10:11:25;;;;;;;0.30;0.30;;;18.50;99.90;;;;;;5053423;28;20136;-79
2022/06/27 10:14:14;;;;;;;0.23;0.23;;;18.50;99.90;;;;;;5053220;28;20084;-78
2022/06/27 10:16:57;;;;;;;0.20;0.20;;;18.60;99.90;;;;;;5053463;28;20102;-77
2022/06/27 10:19:28;;;;;;;0.50;0.40;;;18.60;99.90;;;;;;5055763;28;20167;-79
2022/06/27 10:21:56;;;;;;;0.30;0.30;;;18.70;99.90;;;;;;5057491;28;20437;-79
2022/06/27 10:24:21;;;;;;;0.30;0.30;;;18.70;99.90;;;;;;5058861;28;20123;-78
2022/06/27 10:26:50;;;;;;;0.20;0.20;;;18.80;99.90;;;;;;5066623;28;20198;-80
2022/06/27 10:29:28;;;;;;;0.30;0.30;;;18.80;99.90;;;;;;5023249;28;20072;-80
2022/06/27 10:31:55;;;;;;;0.50;0.50;;;18.80;99.90;;;;;;5058496;28;20049;-78
2022/06/27 10:34:43;;;;;;;0.20;0.20;;;18.80;99.90;;;;;;5064244;28;20044;-79
2022/06/27 10:37:24;;;;;;;0.20;0.20;;;18.80;99.90;;;;;;5071696;28;20416;-80
2022/06/27 10:40:13;;;;;;;0.30;0.30;;;18.80;99.90;;;;;;5069868;28;20456;-82
2022/06/27 10:42:52;;;;;;;0.20;0.20;;;18.80;99.90;;;;;;5076564;28;20051;-80
2022/06/27 10:45:21;;;;;;;0.30;0.30;;;19.00;99.90;;;;;;5059169;28;20040;-78
2022/06/27 10:47:47;;;;;;;0.20;0.20;;;19.00;99.90;;;;;;5076845;28;20384;-79
2022/06/27 10:50:15;;;;;;;0.30;0.30;;;19.00;99.90;;;;;;5076885;28;20070;-82
2022/06/27 10:52:41;;;;;;;0.20;0.20;;;19.10;99.90;;;;;;5076265;28;20106;-78
2022/06/27 10:55:27;;;;;;;0.30;0.30;;;19.20;99.90;;;;;;5076768;28;20090;-78
2022/06/27 10:57:54;;;;;;;0.20;0.20;;;19.20;99.90;;;;;;5059012;28;20033;-77
2022/06/27 11:00:38;;;;;;;0.20;0.20;;;19.20;99.90;;;;;;5063387;28;20087;-79
2022/06/27 11:03:04;;;;;;;0.20;0.20;;;19.20;99.90;;;;;;5056563;28;20053;-81
2022/06/27 11:05:50;;;;;;;0.30;0.30;;;19.30;99.90;;;;;;5056371;28;20036;-79
2022/06/27 11:08:15;;;;;;;0.20;0.20;;;19.30;99.90;;;;;;5056473;28;20405;-79
2022/06/27 11:10:43;;;;;;;0.20;0.20;;;19.40;99.90;;;;;;5056496;28;20045;-78
2022/06/27 11:13:09;;;;;;;0.20;0.20;;;19.40;99.90;;;;;;5056347;28;20037;-78
2022/06/27 11:15:34;;;;;;;0.20;0.20;;;19.50;99.90;;;;;;5056432;28;20126;-79
2022/06/27 11:18:07;;;;;;;0.20;0.20;;;19.60;99.90;;;;;;5056349;28;20380;-80
2022/06/27 11:20:32;;;;;;;0.22;0.22;;;19.60;99.90;;;;;;5038387;28;20120;-79
2022/06/27 11:23:01;;;;;;;0.20;0.20;;;19.70;99.90;;;;;;5063753;28;20174;-78
2022/06/27 11:25:28;;;;;;;0.30;0.30;;;19.70;99.90;;;;;;5075061;28;20048;-80
2022/06/27 11:27:56;;;;;;;0.30;0.30;;;19.80;99.90;;;;;;5064734;28;20052;-80
2022/06/27 11:33:18;;;;;;;0.20;0.20;;;19.90;99.90;;;;;;5056087;28;20078;-79
2022/06/27 11:35:46;;;;;;;0.20;0.20;;;20.00;99.90;;;;;;5056267;28;20138;-85
2022/06/27 11:38:18;;;;;;;0.30;0.30;;;20.10;99.90;;;;;;5038547;28;20045;-81
2022/06/27 11:41:01;;;;;;;0.30;0.30;;;20.10;99.90;;;;;;5056135;28;20477;-82
2022/06/27 11:43:45;;;;;;;0.20;0.20;;;20.10;99.90;;;;;;5056216;28;20045;-75
2022/06/27 11:46:26;;;;;;;0.20;0.20;;;20.10;99.90;;;;;;5055952;28;20060;-75
2022/06/27 11:48:54;;;;;;;0.40;0.40;;;20.10;99.90;;;;;;5055905;28;20610;-75
2022/06/27 11:51:25;;;;;;;0.28;0.28;;;20.10;99.90;;;;;;5054595;28;20496;-75
2022/06/27 11:53:52;;;;;;;0.20;0.20;;;20.10;99.90;;;;;;5054805;28;20412;-76
2022/06/27 11:56:25;;;;;;;0.28;0.28;;;20.10;99.90;;;;;;5055683;28;20045;-75
2022/06/27 11:58:56;;;;;;;0.28;0.28;;;20.10;99.90;;;;;;5055853;28;20049;-75
2022/06/27 12:01:23;;;;;;;0.50;0.40;;;20.10;99.90;;;;;;5055763;28;20057;-76
2022/06/27 12:04:07;;;;;;;0.30;0.30;;;20.10;99.90;;;;;;5055846;28;20049;-75
2022/06/27 12:06:43;;;;;;;0.20;0.20;;;20.10;99.90;;;;;;5055438;28;20136;-75
2022/06/27 12:09:09;;;;;;;0.30;0.30;;;20.00;99.90;;;;;;5055856;28;20397;-75
2022/06/27 12:11:34;;;;;;;0.20;0.20;;;20.00;99.90;;;;;;5055513;28;20041;-75
2022/06/27 12:14:01;;;;;;;0.20;0.20;;;20.00;99.90;;;;;;5055512;28;20182;-75
2022/06/27 12:16:27;;;;;;;0.20;0.20;;;19.90;99.90;;;;;;5055605;28;20093;-75
2022/06/27 12:18:53;;;;;;;0.20;0.20;;;20.00;99.90;;;;;;5055292;28;20120;-75
2022/06/27 12:21:20;;;;;;;0.30;0.30;;;20.00;99.90;;;;;;5055324;28;20503;-75
2022/06/27 12:23:45;;;;;;;;;;;19.90;99.90;;;;;;5055673;28;20049;-75
2022/06/27 12:26:11;;;;;;;0.20;0.20;;;19.90;99.90;;;;;;5055670;28;19924;-75
2022/06/27 12:28:37;;;;;;;0.20;0.20;;;19.90;99.90;;;;;;5055178;28;20045;-74
2022/06/27 12:31:02;;;;;;;0.30;0.30;;;19.80;99.90;;;;;;5055379;28;20045;-75
2022/06/27 12:33:28;;;;;;;0.20;0.20;;;19.70;99.90;;;;;;5055086;28;20037;-74
2022/06/27 12:35:54;;;;;;;0.20;0.20;;;19.70;99.90;;;;;;5055066;28;20056;-75
2022/06/27 12:38:20;;;;;;;0.30;0.30;;;19.80;99.90;;;;;;5054923;28;20049;-75
2022/06/27 12:40:46;;;;;;;0.40;0.37;;;19.70;99.90;;;;;;5054861;28;20076;-75
2022/06/27 12:43:11;;;;;;;0.20;0.20;;;19.70;99.90;;;;;;5053948;28;20056;-76
2022/06/27 12:45:37;;;;;;;0.20;0.20;;;19.60;99.90;;;;;;5037308;28;20048;-76
2022/06/27 12:48:05;;;;;;;0.20;0.20;;;19.50;99.90;;;;;;5054934;28;20045;-76
2022/06/27 12:50:32;;;;;;;0.40;0.40;;;19.50;99.90;;;;;;5054654;28;20543;-76
2022/06/27 12:52:58;;;;;;;0.30;0.30;;;19.50;99.90;;;;;;5054718;28;20095;-76
2022/06/27 12:55:24;;;;;;;0.20;0.20;;;19.50;99.90;;;;;;5055033;28;20080;-76
2022/06/27 12:57:49;;;;;;;0.20;0.20;;;19.60;99.90;;;;;;5054710;28;20049;-76
2022/06/27 13:00:15;;;;;;;0.20;0.20;;;19.50;99.90;;;;;;5054482;28;20501;-76